sensor_id;sensor_type;location;lat;lon;timestamp;temperature;humidity
8862;DHT22;4799;50.996;4.754;2023-02-01T00:01:59;5.80;99.90
8862;DHT22;4799;50.996;4.754;2023-02-01T00:04:25;5.90;99.90
8862;DHT22;4799;50.996;4.754;2023-02-01T00:06:51;5.90;99.90
8862;DHT22;4799;50.996;4.754;2023-02-01T00:09:17;6.00;99.90
8862;DHT22;4799;50.996;4.754;2023-02-01T00:11:43;6.10;99.90
8862;DHT22;4799;50.996;4.754;2023-02-01T00:14:08;6.10;99.90
8862;DHT22;4799;50.996;4.754;2023-02-01T00:16:34;6.20;99.90
8862;DHT22;4799;50.996;4.754;2023-02-01T00:19:07;6.20;99.90
8862;DHT22;4799;50.996;4.754;2023-02-01T00:21:33;6.30;99.90
8862;DHT22;4799;50.996;4.754;2023-02-01T00:23:59;6.30;99.90
8862;DHT22;4799;50.996;4.754;2023-02-01T00:26:32;6.30;99.90
8862;DHT22;4799;50.996;4.754;2023-02-01T00:29:00;6.30;99.90
8862;DHT22;4799;50.996;4.754;2023-02-01T00:31:26;6.30;99.90
8862;DHT22;4799;50.996;4.754;2023-02-01T00:33:52;6.40;99.90
8862;DHT22;4799;50.996;4.754;2023-02-01T00:36:18;6.40;99.90
8862;DHT22;4799;50.996;4.754;2023-02-01T00:38:44;6.40;99.90
8862;DHT22;4799;50.996;4.754;2023-02-01T00:41:15;6.40;99.90
8862;DHT22;4799;50.996;4.754;2023-02-01T00:43:41;6.50;99.90
8862;DHT22;4799;50.996;4.754;2023-02-01T00:46:08;6.50;99.90
8862;DHT22;4799;50.996;4.754;2023-02-01T00:48:34;6.50;99.90
8862;DHT22;4799;50.996;4.754;2023-02-01T00:51:07;6.50;99.90
8862;DHT22;4799;50.996;4.754;2023-02-01T00:53:35;6.50;99.90
8862;DHT22;4799;50.996;4.754;2023-02-01T00:56:01;6.50;99.90
8862;DHT22;4799;50.996;4.754;2023-02-01T00:58:27;6.40;99.90
8862;DHT22;4799;50.996;4.754;2023-02-01T01:01:08;6.30;99.90
8862;DHT22;4799;50.996;4.754;2023-02-01T01:03:35;6.20;99.90
8862;DHT22;4799;50.996;4.754;2023-02-01T01:06:05;6.10;99.90
8862;DHT22;4799;50.996;4.754;2023-02-01T01:08:31;6.00;99.90
8862;DHT22;4799;50.996;4.754;2023-02-01T01:10:57;5.90;99.90
8862;DHT22;4799;50.996;4.754;2023-02-01T01:13:23;5.90;99.90
8862;DHT22;4799;50.996;4.754;2023-02-01T01:15:49;5.90;99.90
8862;DHT22;4799;50.996;4.754;2023-02-01T01:18:15;5.90;99.90
8862;DHT22;4799;50.996;4.754;2023-02-01T01:20:41;6.00;99.90
8862;DHT22;4799;50.996;4.754;2023-02-01T01:23:07;6.10;99.90
8862;DHT22;4799;50.996;4.754;2023-02-01T01:25:38;6.10;99.90
8862;DHT22;4799;50.996;4.754;2023-02-01T01:28:04;6.10;99.90
8862;DHT22;4799;50.996;4.754;2023-02-01T01:30:30;6.20;99.90
8862;DHT22;4799;50.996;4.754;2023-02-01T01:32:56;6.20;99.90
8862;DHT22;4799;50.996;4.754;2023-02-01T01:35:21;6.20;99.90
8862;DHT22;4799;50.996;4.754;2023-02-01T01:37:47;6.20;99.90
8862;DHT22;4799;50.996;4.754;2023-02-01T01:40:13;6.20;99.90
8862;DHT22;4799;50.996;4.754;2023-02-01T01:42:41;6.20;99.90
8862;DHT22;4799;50.996;4.754;2023-02-01T01:47:48;6.20;99.90
8862;DHT22;4799;50.996;4.754;2023-02-01T01:50:18;6.30;99.90
8862;DHT22;4799;50.996;4.754;2023-02-01T01:52:47;6.30;99.90
8862;DHT22;4799;50.996;4.754;2023-02-01T01:55:16;6.30;99.90
8862;DHT22;4799;50.996;4.754;2023-02-01T01:57:48;6.30;99.90
8862;DHT22;4799;50.996;4.754;2023-02-01T02:00:17;6.40;99.90
8862;DHT22;4799;50.996;4.754;2023-02-01T02:02:47;6.40;99.90
8862;DHT22;4799;50.996;4.754;2023-02-01T02:05:15;6.40;99.90
8862;DHT22;4799;50.996;4.754;2023-02-01T02:07:45;6.50;99.90
8862;DHT22;4799;50.996;4.754;2023-02-01T02:10:13;6.50;99.90
8862;DHT22;4799;50.996;4.754;2023-02-01T02:12:41;6.50;99.90
8862;DHT22;4799;50.996;4.754;2023-02-01T02:15:12;6.40;99.90
8862;DHT22;4799;50.996;4.754;2023-02-01T02:18:06;6.40;99.90
8862;DHT22;4799;50.996;4.754;2023-02-01T02:32:05;6.00;99.90
8862;DHT22;4799;50.996;4.754;2023-02-01T02:39:58;5.80;99.90
8862;DHT22;4799;50.996;4.754;2023-02-01T02:45:47;5.60;99.90
8862;DHT22;4799;50.996;4.754;2023-02-01T02:48:53;5.60;99.90
8862;DHT22;4799;50.996;4.754;2023-02-01T02:51:40;5.60;99.90
8862;DHT22;4799;50.996;4.754;2023-02-01T02:54:32;5.50;99.90
8862;DHT22;4799;50.996;4.754;2023-02-01T02:57:27;5.50;99.90
8862;DHT22;4799;50.996;4.754;2023-02-01T03:00:20;5.50;99.90
8862;DHT22;4799;50.996;4.754;2023-02-01T03:03:05;5.40;99.90
8862;DHT22;4799;50.996;4.754;2023-02-01T03:05:50;5.40;99.90
8862;DHT22;4799;50.996;4.754;2023-02-01T03:08:18;5.40;99.90
8862;DHT22;4799;50.996;4.754;2023-02-01T03:10:58;5.40;99.90
8862;DHT22;4799;50.996;4.754;2023-02-01T03:13:56;5.40;99.90
8862;DHT22;4799;50.996;4.754;2023-02-01T03:19:14;5.40;99.90
8862;DHT22;4799;50.996;4.754;2023-02-01T03:22:03;5.40;99.90
8862;DHT22;4799;50.996;4.754;2023-02-01T03:24:41;5.40;99.90
8862;DHT22;4799;50.996;4.754;2023-02-01T03:27:35;5.40;99.90
8862;DHT22;4799;50.996;4.754;2023-02-01T03:32:40;5.50;99.90
8862;DHT22;4799;50.996;4.754;2023-02-01T03:38:03;5.50;99.90
8862;DHT22;4799;50.996;4.754;2023-02-01T03:40:35;5.50;99.90
8862;DHT22;4799;50.996;4.754;2023-02-01T03:43:04;5.50;99.90
8862;DHT22;4799;50.996;4.754;2023-02-01T03:45:35;5.40;99.90
8862;DHT22;4799;50.996;4.754;2023-02-01T03:48:01;5.40;99.90
8862;DHT22;4799;50.996;4.754;2023-02-01T03:50:30;5.40;99.90
8862;DHT22;4799;50.996;4.754;2023-02-01T03:53:07;5.40;99.90
8862;DHT22;4799;50.996;4.754;2023-02-01T03:55:35;5.40;99.90
8862;DHT22;4799;50.996;4.754;2023-02-01T03:58:08;5.30;99.90
8862;DHT22;4799;50.996;4.754;2023-02-01T04:00:35;5.30;99.90
8862;DHT22;4799;50.996;4.754;2023-02-01T04:03:02;5.30;99.90
8862;DHT22;4799;50.996;4.754;2023-02-01T04:05:29;5.20;99.90
8862;DHT22;4799;50.996;4.754;2023-02-01T04:07:56;5.20;99.90
8862;DHT22;4799;50.996;4.754;2023-02-01T04:10:22;5.20;99.90
8862;DHT22;4799;50.996;4.754;2023-02-01T04:12:48;5.10;99.90
8862;DHT22;4799;50.996;4.754;2023-02-01T04:15:14;5.10;99.90
8862;DHT22;4799;50.996;4.754;2023-02-01T04:17:40;5.10;99.90
8862;DHT22;4799;50.996;4.754;2023-02-01T04:20:06;5.10;99.90
8862;DHT22;4799;50.996;4.754;2023-02-01T04:22:32;5.00;99.90
8862;DHT22;4799;50.996;4.754;2023-02-01T04:24:58;5.10;99.90
8862;DHT22;4799;50.996;4.754;2023-02-01T04:27:23;5.10;99.90
8862;DHT22;4799;50.996;4.754;2023-02-01T04:29:50;5.10;99.90
8862;DHT22;4799;50.996;4.754;2023-02-01T04:32:16;5.10;99.90
8862;DHT22;4799;50.996;4.754;2023-02-01T04:34:43;5.10;99.90
8862;DHT22;4799;50.996;4.754;2023-02-01T04:37:08;5.10;99.90
8862;DHT22;4799;50.996;4.754;2023-02-01T04:39:34;5.10;99.90
8862;DHT22;4799;50.996;4.754;2023-02-01T04:42:00;5.00;99.90
8862;DHT22;4799;50.996;4.754;2023-02-01T04:44:25;5.00;99.90
8862;DHT22;4799;50.996;4.754;2023-02-01T04:46:51;5.10;99.90
8862;DHT22;4799;50.996;4.754;2023-02-01T04:49:17;5.10;99.90
8862;DHT22;4799;50.996;4.754;2023-02-01T04:51:43;5.10;99.90
8862;DHT22;4799;50.996;4.754;2023-02-01T04:54:09;5.10;99.90
8862;DHT22;4799;50.996;4.754;2023-02-01T04:56:37;5.00;99.90
8862;DHT22;4799;50.996;4.754;2023-02-01T04:59:03;5.00;99.90
8862;DHT22;4799;50.996;4.754;2023-02-01T05:01:29;5.00;99.90
8862;DHT22;4799;50.996;4.754;2023-02-01T05:03:55;5.00;99.90
8862;DHT22;4799;50.996;4.754;2023-02-01T05:06:21;5.00;99.90
8862;DHT22;4799;50.996;4.754;2023-02-01T05:08:47;5.00;99.90
8862;DHT22;4799;50.996;4.754;2023-02-01T05:11:12;5.00;99.90
8862;DHT22;4799;50.996;4.754;2023-02-01T05:13:57;5.00;99.90
8862;DHT22;4799;50.996;4.754;2023-02-01T05:16:23;5.00;99.90
8862;DHT22;4799;50.996;4.754;2023-02-01T05:18:48;4.90;99.90
8862;DHT22;4799;50.996;4.754;2023-02-01T05:21:14;4.90;99.90
8862;DHT22;4799;50.996;4.754;2023-02-01T05:23:40;4.90;99.90
8862;DHT22;4799;50.996;4.754;2023-02-01T05:26:24;4.90;99.90
8862;DHT22;4799;50.996;4.754;2023-02-01T05:28:50;4.80;99.90
8862;DHT22;4799;50.996;4.754;2023-02-01T05:31:16;4.80;99.90
8862;DHT22;4799;50.996;4.754;2023-02-01T05:33:42;4.80;99.90
8862;DHT22;4799;50.996;4.754;2023-02-01T05:36:08;4.80;99.90
8862;DHT22;4799;50.996;4.754;2023-02-01T05:38:34;4.80;99.90
8862;DHT22;4799;50.996;4.754;2023-02-01T05:41:00;4.70;99.90
8862;DHT22;4799;50.996;4.754;2023-02-01T05:43:25;4.70;99.90
8862;DHT22;4799;50.996;4.754;2023-02-01T05:45:52;4.60;99.90
8862;DHT22;4799;50.996;4.754;2023-02-01T05:48:18;4.60;99.90
8862;DHT22;4799;50.996;4.754;2023-02-01T05:50:44;4.60;99.90
8862;DHT22;4799;50.996;4.754;2023-02-01T05:53:09;4.60;99.90
8862;DHT22;4799;50.996;4.754;2023-02-01T05:55:36;4.60;99.90
8862;DHT22;4799;50.996;4.754;2023-02-01T05:58:02;4.60;99.90
8862;DHT22;4799;50.996;4.754;2023-02-01T06:00:27;4.60;99.90
8862;DHT22;4799;50.996;4.754;2023-02-01T06:02:53;4.50;99.90
8862;DHT22;4799;50.996;4.754;2023-02-01T06:05:19;4.50;99.90
8862;DHT22;4799;50.996;4.754;2023-02-01T06:07:45;4.60;99.90
8862;DHT22;4799;50.996;4.754;2023-02-01T06:10:11;4.50;99.90
8862;DHT22;4799;50.996;4.754;2023-02-01T06:12:37;4.50;99.90
8862;DHT22;4799;50.996;4.754;2023-02-01T06:15:03;4.60;99.90
8862;DHT22;4799;50.996;4.754;2023-02-01T06:17:29;4.60;99.90
8862;DHT22;4799;50.996;4.754;2023-02-01T06:19:54;4.60;99.90
8862;DHT22;4799;50.996;4.754;2023-02-01T06:22:20;4.70;99.90
8862;DHT22;4799;50.996;4.754;2023-02-01T06:24:47;4.70;99.90
8862;DHT22;4799;50.996;4.754;2023-02-01T06:27:13;4.70;99.90
8862;DHT22;4799;50.996;4.754;2023-02-01T06:29:38;4.70;99.90
8862;DHT22;4799;50.996;4.754;2023-02-01T06:32:04;4.70;99.90
8862;DHT22;4799;50.996;4.754;2023-02-01T06:34:30;4.60;99.90
8862;DHT22;4799;50.996;4.754;2023-02-01T06:36:56;4.60;99.90
8862;DHT22;4799;50.996;4.754;2023-02-01T06:39:21;4.60;99.90
8862;DHT22;4799;50.996;4.754;2023-02-01T06:41:48;4.70;99.90
8862;DHT22;4799;50.996;4.754;2023-02-01T06:44:15;4.70;99.90
8862;DHT22;4799;50.996;4.754;2023-02-01T06:46:41;4.60;99.90
8862;DHT22;4799;50.996;4.754;2023-02-01T06:49:06;4.60;99.90
8862;DHT22;4799;50.996;4.754;2023-02-01T06:51:33;4.60;99.90
8862;DHT22;4799;50.996;4.754;2023-02-01T06:53:58;4.50;99.90
8862;DHT22;4799;50.996;4.754;2023-02-01T06:56:25;4.50;99.90
8862;DHT22;4799;50.996;4.754;2023-02-01T06:58:51;4.50;99.90
8862;DHT22;4799;50.996;4.754;2023-02-01T07:01:18;4.50;99.90
8862;DHT22;4799;50.996;4.754;2023-02-01T07:03:47;4.50;99.90
8862;DHT22;4799;50.996;4.754;2023-02-01T07:06:14;4.50;99.90
8862;DHT22;4799;50.996;4.754;2023-02-01T07:08:39;4.50;99.90
8862;DHT22;4799;50.996;4.754;2023-02-01T07:11:07;4.50;99.90
8862;DHT22;4799;50.996;4.754;2023-02-01T07:13:34;4.50;99.90
8862;DHT22;4799;50.996;4.754;2023-02-01T07:16:01;4.50;99.90
8862;DHT22;4799;50.996;4.754;2023-02-01T07:18:28;4.50;99.90
8862;DHT22;4799;50.996;4.754;2023-02-01T07:20:55;4.60;99.90
8862;DHT22;4799;50.996;4.754;2023-02-01T07:23:21;4.50;99.90
8862;DHT22;4799;50.996;4.754;2023-02-01T07:25:47;4.50;99.90
8862;DHT22;4799;50.996;4.754;2023-02-01T07:28:12;4.60;99.90
8862;DHT22;4799;50.996;4.754;2023-02-01T07:30:38;4.60;99.90
8862;DHT22;4799;50.996;4.754;2023-02-01T07:33:04;4.60;99.90
8862;DHT22;4799;50.996;4.754;2023-02-01T07:35:30;4.60;99.90
8862;DHT22;4799;50.996;4.754;2023-02-01T07:37:57;4.70;99.90
8862;DHT22;4799;50.996;4.754;2023-02-01T07:40:23;4.70;99.90
8862;DHT22;4799;50.996;4.754;2023-02-01T07:42:57;4.70;99.90
8862;DHT22;4799;50.996;4.754;2023-02-01T07:45:23;4.70;99.90
8862;DHT22;4799;50.996;4.754;2023-02-01T07:47:51;4.70;99.90
8862;DHT22;4799;50.996;4.754;2023-02-01T07:50:16;4.80;99.90
8862;DHT22;4799;50.996;4.754;2023-02-01T07:52:42;4.80;99.90
8862;DHT22;4799;50.996;4.754;2023-02-01T07:55:08;4.80;99.90
8862;DHT22;4799;50.996;4.754;2023-02-01T07:57:34;4.80;99.90
8862;DHT22;4799;50.996;4.754;2023-02-01T08:00:00;4.90;99.90
8862;DHT22;4799;50.996;4.754;2023-02-01T08:02:44;4.90;99.90
8862;DHT22;4799;50.996;4.754;2023-02-01T08:05:10;5.00;99.90
8862;DHT22;4799;50.996;4.754;2023-02-01T08:07:36;5.10;99.90
8862;DHT22;4799;50.996;4.754;2023-02-01T08:10:01;5.20;99.90
8862;DHT22;4799;50.996;4.754;2023-02-01T08:12:27;5.30;99.90
8862;DHT22;4799;50.996;4.754;2023-02-01T08:14:53;5.40;99.90
8862;DHT22;4799;50.996;4.754;2023-02-01T08:17:19;5.40;99.90
8862;DHT22;4799;50.996;4.754;2023-02-01T08:19:45;5.50;99.90
8862;DHT22;4799;50.996;4.754;2023-02-01T08:22:11;5.60;99.90
8862;DHT22;4799;50.996;4.754;2023-02-01T08:24:37;5.60;99.90
8862;DHT22;4799;50.996;4.754;2023-02-01T08:27:06;5.70;99.90
8862;DHT22;4799;50.996;4.754;2023-02-01T08:29:31;5.70;99.90
8862;DHT22;4799;50.996;4.754;2023-02-01T08:31:58;5.80;99.90
8862;DHT22;4799;50.996;4.754;2023-02-01T08:34:23;5.80;99.90
8862;DHT22;4799;50.996;4.754;2023-02-01T08:36:49;5.80;99.90
8862;DHT22;4799;50.996;4.754;2023-02-01T08:39:17;5.80;99.90
8862;DHT22;4799;50.996;4.754;2023-02-01T08:41:43;5.90;99.90
8862;DHT22;4799;50.996;4.754;2023-02-01T08:44:28;5.90;99.90
8862;DHT22;4799;50.996;4.754;2023-02-01T08:46:54;5.90;99.90
8862;DHT22;4799;50.996;4.754;2023-02-01T08:49:20;6.00;99.90
8862;DHT22;4799;50.996;4.754;2023-02-01T08:51:45;6.10;99.90
8862;DHT22;4799;50.996;4.754;2023-02-01T08:54:11;6.10;99.90
8862;DHT22;4799;50.996;4.754;2023-02-01T08:56:37;6.20;99.90
8862;DHT22;4799;50.996;4.754;2023-02-01T08:59:02;6.20;99.90
8862;DHT22;4799;50.996;4.754;2023-02-01T09:01:28;6.30;99.90
8862;DHT22;4799;50.996;4.754;2023-02-01T09:03:54;6.30;99.90
8862;DHT22;4799;50.996;4.754;2023-02-01T09:06:20;6.40;99.90
8862;DHT22;4799;50.996;4.754;2023-02-01T09:08:45;6.40;99.90
8862;DHT22;4799;50.996;4.754;2023-02-01T09:11:14;6.40;99.90
8862;DHT22;4799;50.996;4.754;2023-02-01T09:13:40;6.50;99.90
8862;DHT22;4799;50.996;4.754;2023-02-01T09:16:06;6.50;99.90
8862;DHT22;4799;50.996;4.754;2023-02-01T09:18:32;6.50;99.90
8862;DHT22;4799;50.996;4.754;2023-02-01T09:20:57;6.60;99.90
8862;DHT22;4799;50.996;4.754;2023-02-01T09:23:23;6.60;99.90
8862;DHT22;4799;50.996;4.754;2023-02-01T09:25:51;6.70;99.90
8862;DHT22;4799;50.996;4.754;2023-02-01T09:28:18;6.70;99.90
8862;DHT22;4799;50.996;4.754;2023-02-01T09:30:44;6.70;99.90
8862;DHT22;4799;50.996;4.754;2023-02-01T09:33:09;6.70;99.90
8862;DHT22;4799;50.996;4.754;2023-02-01T09:35:35;6.70;99.90
8862;DHT22;4799;50.996;4.754;2023-02-01T09:38:01;6.70;99.90
8862;DHT22;4799;50.996;4.754;2023-02-01T09:40:27;6.70;99.90
8862;DHT22;4799;50.996;4.754;2023-02-01T09:46:06;6.70;99.90
8862;DHT22;4799;50.996;4.754;2023-02-01T09:48:38;6.80;99.90
8862;DHT22;4799;50.996;4.754;2023-02-01T09:51:18;6.80;99.90
8862;DHT22;4799;50.996;4.754;2023-02-01T09:53:54;6.80;99.90
8862;DHT22;4799;50.996;4.754;2023-02-01T09:56:41;6.90;99.90
8862;DHT22;4799;50.996;4.754;2023-02-01T09:59:41;6.90;99.90
8862;DHT22;4799;50.996;4.754;2023-02-01T10:02:16;6.90;99.90
8862;DHT22;4799;50.996;4.754;2023-02-01T10:04:44;7.00;99.90
8862;DHT22;4799;50.996;4.754;2023-02-01T10:07:22;7.00;99.90
8862;DHT22;4799;50.996;4.754;2023-02-01T10:09:54;7.00;99.90
8862;DHT22;4799;50.996;4.754;2023-02-01T10:18:47;7.10;99.90
8862;DHT22;4799;50.996;4.754;2023-02-01T10:26:39;7.30;99.90
8862;DHT22;4799;50.996;4.754;2023-02-01T10:29:15;7.30;99.90
8862;DHT22;4799;50.996;4.754;2023-02-01T10:31:42;7.40;99.90
8862;DHT22;4799;50.996;4.754;2023-02-01T10:34:27;7.40;99.90
8862;DHT22;4799;50.996;4.754;2023-02-01T10:39:30;7.60;99.90
8862;DHT22;4799;50.996;4.754;2023-02-01T10:41:56;7.60;99.90
8862;DHT22;4799;50.996;4.754;2023-02-01T10:44:26;7.70;99.90
8862;DHT22;4799;50.996;4.754;2023-02-01T10:46:53;7.80;99.90
8862;DHT22;4799;50.996;4.754;2023-02-01T10:49:39;7.90;99.90
8862;DHT22;4799;50.996;4.754;2023-02-01T10:52:17;7.90;99.90
8862;DHT22;4799;50.996;4.754;2023-02-01T10:54:44;8.00;99.90
8862;DHT22;4799;50.996;4.754;2023-02-01T10:57:23;8.10;99.90
8862;DHT22;4799;50.996;4.754;2023-02-01T10:59:54;8.10;99.90
8862;DHT22;4799;50.996;4.754;2023-02-01T11:02:30;8.20;99.90
8862;DHT22;4799;50.996;4.754;2023-02-01T11:05:14;8.20;99.90
8862;DHT22;4799;50.996;4.754;2023-02-01T11:07:50;8.30;99.90
8862;DHT22;4799;50.996;4.754;2023-02-01T11:10:37;8.30;99.90
8862;DHT22;4799;50.996;4.754;2023-02-01T11:13:03;8.40;99.90
8862;DHT22;4799;50.996;4.754;2023-02-01T11:15:29;8.40;99.90
8862;DHT22;4799;50.996;4.754;2023-02-01T11:17:55;8.50;99.90
8862;DHT22;4799;50.996;4.754;2023-02-01T11:20:41;8.50;99.90
8862;DHT22;4799;50.996;4.754;2023-02-01T11:23:16;8.60;99.90
8862;DHT22;4799;50.996;4.754;2023-02-01T11:25:57;8.60;99.90
8862;DHT22;4799;50.996;4.754;2023-02-01T11:28:31;8.60;99.90
8862;DHT22;4799;50.996;4.754;2023-02-01T11:31:03;8.60;99.90
8862;DHT22;4799;50.996;4.754;2023-02-01T11:33:32;8.80;99.90
8862;DHT22;4799;50.996;4.754;2023-02-01T11:36:16;8.90;99.90
8862;DHT22;4799;50.996;4.754;2023-02-01T11:41:42;9.30;99.90
8862;DHT22;4799;50.996;4.754;2023-02-01T11:44:38;9.40;99.90
8862;DHT22;4799;50.996;4.754;2023-02-01T11:47:20;9.60;99.90
8862;DHT22;4799;50.996;4.754;2023-02-01T11:49:47;9.60;99.90
8862;DHT22;4799;50.996;4.754;2023-02-01T11:58:46;10.00;99.90
8862;DHT22;4799;50.996;4.754;2023-02-01T12:11:57;10.10;99.90
8862;DHT22;4799;50.996;4.754;2023-02-01T12:39:44;9.70;99.90
8862;DHT22;4799;50.996;4.754;2023-02-01T12:42:31;9.70;99.90
8862;DHT22;4799;50.996;4.754;2023-02-01T12:47:41;9.80;99.90
8862;DHT22;4799;50.996;4.754;2023-02-01T12:50:39;9.70;99.90
8862;DHT22;4799;50.996;4.754;2023-02-01T12:56:11;9.70;99.90
8862;DHT22;4799;50.996;4.754;2023-02-01T12:58:46;9.70;99.90
8862;DHT22;4799;50.996;4.754;2023-02-01T13:01:39;9.70;99.90
8862;DHT22;4799;50.996;4.754;2023-02-01T13:06:57;9.70;99.90
8862;DHT22;4799;50.996;4.754;2023-02-01T13:09:42;9.70;99.90
8862;DHT22;4799;50.996;4.754;2023-02-01T13:12:17;9.80;99.90
8862;DHT22;4799;50.996;4.754;2023-02-01T13:14:54;9.80;99.90
8862;DHT22;4799;50.996;4.754;2023-02-01T13:17:26;9.80;99.90
8862;DHT22;4799;50.996;4.754;2023-02-01T13:23:02;9.90;99.90
8862;DHT22;4799;50.996;4.754;2023-02-01T13:25:31;9.90;99.90
8862;DHT22;4799;50.996;4.754;2023-02-01T13:28:07;9.90;99.90
8862;DHT22;4799;50.996;4.754;2023-02-01T13:30:51;10.00;99.90
8862;DHT22;4799;50.996;4.754;2023-02-01T13:33:47;9.90;99.90
8862;DHT22;4799;50.996;4.754;2023-02-01T13:41:40;9.90;99.90
8862;DHT22;4799;50.996;4.754;2023-02-01T13:44:25;9.90;99.90
8862;DHT22;4799;50.996;4.754;2023-02-01T13:46:54;9.90;99.90
8862;DHT22;4799;50.996;4.754;2023-02-01T13:49:37;9.90;99.90
8862;DHT22;4799;50.996;4.754;2023-02-01T13:52:04;9.90;99.90
8862;DHT22;4799;50.996;4.754;2023-02-01T13:54:37;9.90;99.90
8862;DHT22;4799;50.996;4.754;2023-02-01T13:57:05;9.90;99.90
8862;DHT22;4799;50.996;4.754;2023-02-01T14:05:06;10.00;99.90
8862;DHT22;4799;50.996;4.754;2023-02-01T14:07:33;9.90;99.90
8862;DHT22;4799;50.996;4.754;2023-02-01T14:13:05;10.00;99.90
8862;DHT22;4799;50.996;4.754;2023-02-01T14:15:31;10.00;99.90
8862;DHT22;4799;50.996;4.754;2023-02-01T14:17:56;10.00;99.90
8862;DHT22;4799;50.996;4.754;2023-02-01T14:20:42;10.00;99.90
8862;DHT22;4799;50.996;4.754;2023-02-01T14:23:13;10.00;99.90
8862;DHT22;4799;50.996;4.754;2023-02-01T14:25:41;10.00;99.90
8862;DHT22;4799;50.996;4.754;2023-02-01T14:28:28;10.00;99.90
8862;DHT22;4799;50.996;4.754;2023-02-01T14:30:56;9.90;99.90
8862;DHT22;4799;50.996;4.754;2023-02-01T14:33:25;9.90;99.90
8862;DHT22;4799;50.996;4.754;2023-02-01T14:36:05;9.90;99.90
8862;DHT22;4799;50.996;4.754;2023-02-01T14:38:34;9.90;99.90
8862;DHT22;4799;50.996;4.754;2023-02-01T14:41:33;9.90;99.90
8862;DHT22;4799;50.996;4.754;2023-02-01T14:49:47;9.90;99.90
8862;DHT22;4799;50.996;4.754;2023-02-01T14:52:17;9.90;99.90
8862;DHT22;4799;50.996;4.754;2023-02-01T14:54:51;9.90;99.90
8862;DHT22;4799;50.996;4.754;2023-02-01T14:57:20;9.80;99.90
8862;DHT22;4799;50.996;4.754;2023-02-01T14:59:49;9.80;99.90
8862;DHT22;4799;50.996;4.754;2023-02-01T15:02:25;9.80;99.90
8862;DHT22;4799;50.996;4.754;2023-02-01T15:04:56;9.80;99.90
8862;DHT22;4799;50.996;4.754;2023-02-01T15:07:25;9.80;99.90
8862;DHT22;4799;50.996;4.754;2023-02-01T15:09:53;9.80;99.90
8862;DHT22;4799;50.996;4.754;2023-02-01T15:12:26;9.80;99.90
8862;DHT22;4799;50.996;4.754;2023-02-01T15:15:20;9.80;99.90
8862;DHT22;4799;50.996;4.754;2023-02-01T15:17:56;9.80;99.90
8862;DHT22;4799;50.996;4.754;2023-02-01T15:20:28;9.70;99.90
8862;DHT22;4799;50.996;4.754;2023-02-01T15:23:05;9.70;99.90
8862;DHT22;4799;50.996;4.754;2023-02-01T15:25:34;9.70;99.90
8862;DHT22;4799;50.996;4.754;2023-02-01T15:28:04;9.70;99.90
8862;DHT22;4799;50.996;4.754;2023-02-01T15:30:33;9.70;99.90
8862;DHT22;4799;50.996;4.754;2023-02-01T15:33:17;9.80;99.90
8862;DHT22;4799;50.996;4.754;2023-02-01T15:36:06;9.70;99.90
8862;DHT22;4799;50.996;4.754;2023-02-01T15:38:36;9.70;99.90
8862;DHT22;4799;50.996;4.754;2023-02-01T15:41:15;9.60;99.90
8862;DHT22;4799;50.996;4.754;2023-02-01T15:46:21;9.50;99.90
8862;DHT22;4799;50.996;4.754;2023-02-01T15:48:52;9.60;99.90
8862;DHT22;4799;50.996;4.754;2023-02-01T15:51:21;9.60;99.90
8862;DHT22;4799;50.996;4.754;2023-02-01T15:53:55;9.50;99.90
8862;DHT22;4799;50.996;4.754;2023-02-01T15:56:24;9.50;99.90
8862;DHT22;4799;50.996;4.754;2023-02-01T15:58:55;9.50;99.90
8862;DHT22;4799;50.996;4.754;2023-02-01T16:01:22;9.50;99.90
8862;DHT22;4799;50.996;4.754;2023-02-01T16:03:48;9.50;99.90
8862;DHT22;4799;50.996;4.754;2023-02-01T16:08:52;9.40;99.90
8862;DHT22;4799;50.996;4.754;2023-02-01T16:11:54;9.40;99.90
8862;DHT22;4799;50.996;4.754;2023-02-01T16:14:21;9.40;99.90
8862;DHT22;4799;50.996;4.754;2023-02-01T16:16:47;9.30;99.90
8862;DHT22;4799;50.996;4.754;2023-02-01T16:19:13;9.30;99.90
8862;DHT22;4799;50.996;4.754;2023-02-01T16:21:38;9.30;99.90
8862;DHT22;4799;50.996;4.754;2023-02-01T16:24:04;9.30;99.90
8862;DHT22;4799;50.996;4.754;2023-02-01T16:26:32;9.30;99.90
8862;DHT22;4799;50.996;4.754;2023-02-01T16:28:58;9.30;99.90
8862;DHT22;4799;50.996;4.754;2023-02-01T16:31:30;9.20;99.90
8862;DHT22;4799;50.996;4.754;2023-02-01T16:33:57;9.30;99.90
8862;DHT22;4799;50.996;4.754;2023-02-01T16:36:24;9.20;99.90
8862;DHT22;4799;50.996;4.754;2023-02-01T16:38:50;9.20;99.90
8862;DHT22;4799;50.996;4.754;2023-02-01T16:41:20;9.20;99.90
8862;DHT22;4799;50.996;4.754;2023-02-01T16:43:49;9.20;99.90
8862;DHT22;4799;50.996;4.754;2023-02-01T16:46:18;9.20;99.90
8862;DHT22;4799;50.996;4.754;2023-02-01T16:48:57;9.20;99.90
8862;DHT22;4799;50.996;4.754;2023-02-01T16:51:25;9.20;99.90
8862;DHT22;4799;50.996;4.754;2023-02-01T16:53:53;9.20;99.90
8862;DHT22;4799;50.996;4.754;2023-02-01T16:56:21;9.20;99.90
8862;DHT22;4799;50.996;4.754;2023-02-01T16:58:47;9.20;99.90
8862;DHT22;4799;50.996;4.754;2023-02-01T17:01:15;9.20;99.90
8862;DHT22;4799;50.996;4.754;2023-02-01T17:03:41;9.20;99.90
8862;DHT22;4799;50.996;4.754;2023-02-01T17:06:11;9.20;99.90
8862;DHT22;4799;50.996;4.754;2023-02-01T17:08:43;9.20;99.90
8862;DHT22;4799;50.996;4.754;2023-02-01T17:11:11;9.20;99.90
8862;DHT22;4799;50.996;4.754;2023-02-01T17:13:37;9.20;99.90
8862;DHT22;4799;50.996;4.754;2023-02-01T17:16:13;9.20;99.90
8862;DHT22;4799;50.996;4.754;2023-02-01T17:18:41;9.20;99.90
8862;DHT22;4799;50.996;4.754;2023-02-01T17:21:09;9.10;99.90
8862;DHT22;4799;50.996;4.754;2023-02-01T17:23:36;9.00;99.90
8862;DHT22;4799;50.996;4.754;2023-02-01T17:26:02;8.90;99.90
8862;DHT22;4799;50.996;4.754;2023-02-01T17:28:28;8.90;99.90
8862;DHT22;4799;50.996;4.754;2023-02-01T17:30:54;8.80;99.90
8862;DHT22;4799;50.996;4.754;2023-02-01T17:33:26;8.80;99.90
8862;DHT22;4799;50.996;4.754;2023-02-01T17:35:54;8.80;99.90
8862;DHT22;4799;50.996;4.754;2023-02-01T17:38:21;8.80;99.90
8862;DHT22;4799;50.996;4.754;2023-02-01T17:40:46;8.80;99.90
8862;DHT22;4799;50.996;4.754;2023-02-01T17:43:14;8.80;99.90
8862;DHT22;4799;50.996;4.754;2023-02-01T17:45:57;8.80;99.90
8862;DHT22;4799;50.996;4.754;2023-02-01T17:48:24;8.80;99.90
8862;DHT22;4799;50.996;4.754;2023-02-01T17:50:51;8.90;99.90
8862;DHT22;4799;50.996;4.754;2023-02-01T17:53:27;8.80;99.90
8862;DHT22;4799;50.996;4.754;2023-02-01T17:55:54;8.90;99.90
8862;DHT22;4799;50.996;4.754;2023-02-01T17:58:23;8.80;99.90
8862;DHT22;4799;50.996;4.754;2023-02-01T18:00:49;8.90;99.90
8862;DHT22;4799;50.996;4.754;2023-02-01T18:03:28;8.90;99.90
8862;DHT22;4799;50.996;4.754;2023-02-01T18:05:56;8.90;99.90
8862;DHT22;4799;50.996;4.754;2023-02-01T18:08:29;8.90;99.90
8862;DHT22;4799;50.996;4.754;2023-02-01T18:10:59;8.90;99.90
8862;DHT22;4799;50.996;4.754;2023-02-01T18:13:29;8.90;99.90
8862;DHT22;4799;50.996;4.754;2023-02-01T18:15:56;8.90;99.90
8862;DHT22;4799;50.996;4.754;2023-02-01T18:18:24;8.80;99.90
8862;DHT22;4799;50.996;4.754;2023-02-01T18:20:50;8.80;99.90
8862;DHT22;4799;50.996;4.754;2023-02-01T18:23:21;8.80;99.90
8862;DHT22;4799;50.996;4.754;2023-02-01T18:25:48;8.80;99.90
8862;DHT22;4799;50.996;4.754;2023-02-01T18:28:16;8.80;99.90
8862;DHT22;4799;50.996;4.754;2023-02-01T18:30:44;8.80;99.90
8862;DHT22;4799;50.996;4.754;2023-02-01T18:33:15;8.80;99.90
8862;DHT22;4799;50.996;4.754;2023-02-01T18:35:42;8.80;99.90
8862;DHT22;4799;50.996;4.754;2023-02-01T18:38:08;8.70;99.90
8862;DHT22;4799;50.996;4.754;2023-02-01T18:40:36;8.80;99.90
8862;DHT22;4799;50.996;4.754;2023-02-01T18:43:04;8.70;99.90
8862;DHT22;4799;50.996;4.754;2023-02-01T18:45:36;8.70;99.90
8862;DHT22;4799;50.996;4.754;2023-02-01T18:48:03;8.70;99.90